Amherst, NH

6:23 PM EST on December 22, 2014 (GMT -0500)
Amherst Hills | Change Station
CLOSE
Current Station
Personal Weather Station
Location: Amherst, NH
Elevation: 325 ft
Nearby Weather Stations
Active Advisory: Winter Weather Advisory

Elev 325 ft 42.86 °N, 71.62 °W | Updated 3 minutes ago

Overcast
Overcast
35.2 °F
Feels Like 35 °F
N
2.2
Wind Variable Wind from NE
Gusts 3.8 mph

Today
High -- | Low -- °F
--% Chance of Precip.
Yesterday
High -- | Low -- °F
Precip. -- in
7:14 AM 4:15 PM
New Moon, 1% visible
Pressure 31.12 in
Visibility 8.0 miles
Clouds Overcast 1000 ft
Windchill 35 °F
Dew Point 31 °F
Humidity 84%
Rainfall 0.00 in
Snow Depth Not available.
UV 0 out of 12
Pollen .10 out of 12
Air Quality Not available.
Flu Activity Not available.
METAR KASH 222251Z 00000KT 8SM OVC010 02/02 A3035 RMK AO2 T00220016 UPB13E37 P0000 SLP538

More Conditions Fewer Conditions

Pressure 31.12 in
Visibility 8.0 miles
Clouds Overcast 1000 ft
Windchill 35 °F
Dew Point 31 °F
Humidity 84%
Rainfall 0.00 in
Snow Depth Not available.
UV 0 out of 12
Pollen .10 out of 12
Air Quality Not available.
Flu Activity Not available.
METAR KASH 222251Z 00000KT 8SM OVC010 02/02 A3035 RMK AO2 T00220016 UPB13E37 P0000 SLP538

More Conditions Fewer Conditions

10-Day Weather Forecast

Almanac

Astronomy

Dec. 22, 2014 Rise Set
Actual Time
Civil Twilight
Nautical Twilight
Astronomical Twilight
Moon
Length of Visible Light
Length of Day
Tomorrow will be .
, % of the Moon is Illuminated

Today's Extremes

State Highs State Lows

Community

WunderPhotos

Upload Photos

1,779,713 photos uploaded!

WunderBlogs® & News

Nearby

Air Quality

  Air Quality AQ Index Pollutant
Not available.

Snow Depth

Station Depth Elevation

Earthquake Activity

City Distance Mag. Time & Date
Minimum magnitude displayed is 2.5.

Coastal Water Temperatures

Place Temperature

Nearby Weather Stations